Time;durP1;ratioP1;P1;durP2;ratioP2;P2;SDS_P1;SDS_P2;PMS_P1;PMS_P2;Temp;Humidity;BMP_temperature;BMP_pressure;BME280_temperature;BME280_humidity;BME280_pressure;Samples;Min_cycle;Max_cycle;Signal;HPM_P1;HPM_P2
2021/11/15 00:00:59;;;;;;;19.83;11.47;;;;;;;7.57;85.65;102919.19;5110607;28;20493;-68
2021/11/15 00:03:26;;;;;;;19.93;11.80;;;;;;;7.53;85.70;102917.63;5111019;28;20023;-68
2021/11/15 00:05:51;;;;;;;17.57;10.83;;;;;;;7.54;85.07;102911.41;5110649;28;20028;-68
2021/11/15 00:08:17;;;;;;;19.03;11.40;;;;;;;7.55;84.35;102910.47;5110888;28;20028;-69
2021/11/15 00:10:43;;;;;;;21.33;12.35;;;;;;;7.54;83.96;102903.44;5110667;28;20039;-66
2021/11/15 00:13:09;;;;;;;19.38;11.60;;;;;;;7.53;83.46;102907.03;5110777;28;20063;-69
2021/11/15 00:15:34;;;;;;;19.00;12.18;;;;;;;7.55;83.77;102907.81;5110683;28;20035;-70
2021/11/15 00:18:00;;;;;;;20.63;11.82;;;;;;;7.56;83.68;102908.66;5110899;28;20383;-69
2021/11/15 00:20:27;;;;;;;21.27;12.00;;;;;;;7.55;83.07;102906.94;5112166;28;20074;-68
2021/11/15 00:22:53;;;;;;;20.90;12.60;;;;;;;7.55;84.13;102912.25;5114980;28;20028;-69
2021/11/15 00:25:19;;;;;;;18.83;12.60;;;;;;;7.53;83.50;102908.84;5114784;28;20062;-66
2021/11/15 00:27:44;;;;;;;22.17;11.32;;;;;;;7.55;83.89;102909.59;5114536;28;20067;-68
2021/11/15 00:30:11;;;;;;;21.80;12.70;;;;;;;7.51;84.50;102913.34;5096510;28;20077;-69
2021/11/15 00:32:37;;;;;;;21.27;11.70;;;;;;;7.47;84.62;102910.88;5114592;28;20019;-69
2021/11/15 00:35:05;;;;;;;23.90;12.32;;;;;;;7.46;83.99;102906.50;5114509;28;20475;-68
2021/11/15 00:37:30;;;;;;;20.30;12.50;;;;;;;7.45;84.00;102909.22;5114489;28;20020;-70
2021/11/15 00:39:57;;;;;;;21.50;13.13;;;;;;;7.44;83.94;102904.84;5114645;28;20413;-68
2021/11/15 00:42:23;;;;;;;18.47;11.77;;;;;;;7.46;84.97;102910.94;5114600;28;20553;-69
2021/11/15 00:44:49;;;;;;;18.67;11.73;;;;;;;7.45;85.33;102907.41;5113788;28;20118;-69
2021/11/15 00:47:14;;;;;;;22.42;12.50;;;;;;;7.42;85.64;102902.28;5114408;28;20023;-69
2021/11/15 00:49:39;;;;;;;22.80;11.90;;;;;;;7.42;85.65;102906.72;5114636;28;20024;-66
2021/11/15 00:52:05;;;;;;;20.97;11.80;;;;;;;7.42;85.37;102898.75;5114150;28;20020;-66
2021/11/15 00:54:31;;;;;;;19.02;11.40;;;;;;;7.42;84.97;102894.34;5114186;28;20103;-68
2021/11/15 00:56:57;;;;;;;19.40;11.90;;;;;;;7.42;85.06;102896.97;5114188;28;20413;-67
2021/11/15 00:59:22;;;;;;;19.25;11.73;;;;;;;7.42;84.44;102894.34;5114182;28;20032;-67
2021/11/15 01:01:47;;;;;;;19.00;12.03;;;;;;;7.41;84.54;102892.59;5113961;28;20573;-67
2021/11/15 01:04:13;;;;;;;19.50;12.13;;;;;;;7.41;83.98;102886.47;5113996;28;20027;-65
2021/11/15 01:06:38;;;;;;;23.87;12.33;;;;;;;7.41;83.51;102889.09;5114005;28;20020;-65
2021/11/15 01:09:04;;;;;;;18.33;11.13;;;;;;;7.40;83.26;102893.53;5113951;28;20466;-68
2021/11/15 01:11:29;;;;;;;18.27;10.65;;;;;;;7.41;83.55;102895.25;5113803;28;20119;-68
2021/11/15 01:13:55;;;;;;;18.67;11.57;;;;;;;7.41;83.17;102889.09;5113779;28;20103;-65
2021/11/15 01:16:21;;;;;;;19.05;11.93;;;;;;;7.40;82.68;102892.69;5113642;28;20015;-68
2021/11/15 01:18:48;;;;;;;16.10;10.75;;;;;;;7.40;83.42;102900.66;5113720;28;20510;-68
2021/11/15 01:21:13;;;;;;;20.60;11.57;;;;;;;7.39;83.69;102893.63;5095225;28;20036;-65
2021/11/15 01:23:39;;;;;;;20.30;11.47;;;;;;;7.36;83.66;102894.63;5113616;28;20019;-66
2021/11/15 01:26:07;;;;;;;18.48;10.98;;;;;;;7.35;84.88;102892.06;5092804;22;20316;-67
2021/11/15 01:28:34;;;;;;;19.27;11.43;;;;;;;7.32;84.81;102888.63;5029928;28;20018;-68
2021/11/15 01:30:59;;;;;;;20.33;11.97;;;;;;;7.31;84.27;102886.06;5029903;28;20113;-65
2021/11/15 01:33:25;;;;;;;16.98;10.23;;;;;;;7.35;83.48;102881.47;5029325;28;20552;-68
2021/11/15 01:35:50;;;;;;;16.67;10.10;;;;;;;7.35;83.16;102881.47;5029988;28;20392;-67
2021/11/15 01:38:15;;;;;;;18.20;11.33;;;;;;;7.35;83.67;102881.47;5029580;28;20434;-65
2021/11/15 01:40:41;;;;;;;17.83;11.13;;;;;;;7.34;83.91;102883.28;5029832;28;20763;-67
2021/11/15 01:43:06;;;;;;;19.55;11.25;;;;;;;7.34;83.75;102874.44;5097993;28;20053;-65
2021/11/15 01:45:35;;;;;;;20.30;10.47;;;;;;;7.28;83.94;102871.16;5029698;28;20065;-67
2021/11/15 01:48:02;;;;;;;16.80;9.40;;;;;;;7.30;84.22;102874.59;5029924;28;20030;-68
2021/11/15 01:50:29;;;;;;;15.53;9.93;;;;;;;7.31;83.58;102872.81;5029998;28;20042;-66
2021/11/15 01:52:56;;;;;;;19.30;10.50;;;;;;;7.31;81.95;102871.03;5029612;27;20033;-68
2021/11/15 01:55:23;;;;;;;17.43;10.53;;;;;;;7.31;82.19;102872.81;5097733;28;20038;-65
2021/11/15 01:57:49;;;;;;;16.07;9.67;;;;;;;7.36;81.84;102880.53;5029399;28;20029;-66
2021/11/15 02:00:16;;;;;;;;;;;;;;;7.32;81.54;102880.66;5029875;28;20037;-66
2021/11/15 02:02:43;;;;;;;15.63;10.00;;;;;;;7.31;82.73;102880.75;5029480;27;19913;-65
2021/11/15 02:05:08;;;;;;;14.13;9.13;;;;;;;7.29;82.65;102883.50;5097590;28;20033;-68
2021/11/15 02:07:34;;;;;;;15.45;9.77;;;;;;;7.27;83.10;102885.34;5029506;28;20056;-67
2021/11/15 02:09:59;;;;;;;15.68;10.35;;;;;;;7.28;83.83;102881.78;5029437;28;20111;-65
2021/11/15 02:12:25;;;;;;;16.47;9.10;;;;;;;7.25;83.60;102881.06;5029379;28;20433;-67
2021/11/15 02:14:52;;;;;;;15.40;9.13;;;;;;;7.23;84.39;102883.81;5029367;28;20404;-67
2021/11/15 02:17:17;;;;;;;15.90;10.23;;;;;;;7.22;84.75;102876.81;5029259;28;20034;-60
2021/11/15 02:19:44;;;;;;;15.23;9.07;;;;;;;7.19;84.39;102876.09;5029378;28;20492;-64
2021/11/15 02:22:10;;;;;;;16.90;9.40;;;;;;;7.21;85.16;102868.91;5029238;28;20030;-67
2021/11/15 02:24:35;;;;;;;;;;;;;;;7.20;85.02;102880.47;5029410;28;20037;-65
2021/11/15 02:27:02;;;;;;;14.03;9.13;;;;;;;7.18;84.19;102875.22;5028808;28;20356;-67
2021/11/15 02:29:29;;;;;;;13.87;9.57;;;;;;;7.19;84.78;102879.59;5029059;27;20073;-68
2021/11/15 02:31:55;;;;;;;15.77;9.87;;;;;;;7.18;84.72;102874.38;5028815;28;20488;-66
2021/11/15 02:34:20;;;;;;;15.52;8.85;;;;;;;7.16;83.96;102879.78;5028843;28;20030;-66
2021/11/15 02:36:46;;;;;;;13.27;9.20;;;;;;;7.17;84.08;102884.16;5028703;28;20381;-67
2021/11/15 02:39:11;;;;;;;14.97;9.50;;;;;;;7.17;84.88;102875.31;5028919;28;20033;-62
2021/11/15 02:41:37;;;;;;;17.17;9.70;;;;;;;7.16;84.10;102877.13;5028646;28;20045;-68
2021/11/15 02:44:06;;;;;;;15.43;9.93;;;;;;;7.17;84.12;102873.53;5027681;28;20056;-68
2021/11/15 02:46:34;;;;;;;14.93;8.90;;;;;;;7.17;84.27;102870.88;5028579;28;20506;-64
2021/11/15 02:48:59;;;;;;;16.17;9.60;;;;;;;7.18;83.66;102867.28;5028489;28;20438;-66
2021/11/15 02:51:25;;;;;;;16.17;10.43;;;;;;;7.17;83.39;102868.22;5028799;28;20050;-67
2021/11/15 02:53:51;;;;;;;15.47;10.03;;;;;;;7.17;84.55;102867.34;5028594;28;20274;-68
2021/11/15 02:56:16;;;;;;;14.18;9.13;;;;;;;7.14;83.68;102860.41;5096509;28;20465;-67
2021/11/15 02:58:42;;;;;;;14.05;8.90;;;;;;;7.17;83.38;102870.00;5028599;28;20362;-65
2021/11/15 03:01:11;;;;;;;15.63;9.90;;;;;;;7.14;83.54;102863.06;5028223;28;20021;-67
2021/11/15 03:03:38;;;;;;;14.47;9.10;;;;;;;7.13;83.81;102871.97;5028538;28;20036;-68
2021/11/15 03:06:04;;;;;;;15.90;9.50;;;;;;;7.13;83.69;102866.66;5028363;28;20108;-67
2021/11/15 03:08:30;;;;;;;14.15;9.27;;;;;;;7.11;83.64;102869.38;5028640;28;20113;-66
2021/11/15 03:10:58;;;;;;;15.80;10.15;;;;;;;7.12;84.69;102864.97;5028229;28;20032;-66
2021/11/15 03:13:25;;;;;;;15.57;9.47;;;;;;;7.11;84.24;102869.38;5028255;28;20090;-67
2021/11/15 03:15:52;;;;;;;14.53;9.20;;;;;;;7.13;83.62;102870.19;5028526;28;20036;-67
2021/11/15 03:18:24;;;;;;;14.03;9.27;;;;;;;7.13;83.63;102861.34;5028650;28;20130;-67
2021/11/15 03:20:57;;;;;;;16.03;9.90;;;;;;;7.11;83.41;102863.25;5028126;28;20022;-66
2021/11/15 03:23:25;;;;;;;16.40;10.20;;;;;;;7.12;83.92;102872.91;5095566;28;20056;-68
2021/11/15 03:25:51;;;;;;;15.93;9.67;;;;;;;7.11;84.04;102872.03;5027427;28;20045;-68
2021/11/15 03:28:26;;;;;;;15.73;9.90;;;;;;;7.16;83.73;102871.81;5028230;28;20030;-67
2021/11/15 03:30:54;;;;;;;17.53;10.50;;;;;;;7.12;83.06;102864.97;5028062;28;20108;-69
2021/11/15 03:33:20;;;;;;;17.40;10.33;;;;;;;7.13;84.07;102867.53;5028231;28;20090;-69
2021/11/15 03:35:47;;;;;;;15.27;9.37;;;;;;;7.13;83.52;102866.66;5028080;28;20044;-68
2021/11/15 03:38:12;;;;;;;17.87;10.37;;;;;;;7.12;82.83;102870.25;5028145;28;20029;-69
2021/11/15 03:40:38;;;;;;;17.73;10.57;;;;;;;7.09;83.10;102863.31;5027729;28;20499;-69
2021/11/15 03:43:05;;;;;;;16.25;10.18;;;;;;;7.10;83.82;102864.16;5027909;28;20029;-69
2021/11/15 03:45:32;;;;;;;17.33;10.00;;;;;;;7.09;83.19;102858.03;5027752;28;20552;-67
2021/11/15 03:47:59;;;;;;;;;;;;;;;7.08;82.93;102858.94;5028427;28;20388;-67
2021/11/15 03:50:25;;;;;;;14.82;9.70;;;;;;;7.08;82.45;102864.25;5028111;28;19939;-69
2021/11/15 03:52:51;;;;;;;17.27;10.10;;;;;;;7.08;82.69;102864.25;5027638;28;20464;-68
2021/11/15 03:55:18;;;;;;;;;;;;;;;7.09;83.03;102875.72;5027633;28;20361;-69
2021/11/15 03:57:44;;;;;;;16.65;10.05;;;;;;;7.08;82.24;102869.56;5027635;28;19985;-68
2021/11/15 04:00:14;;;;;;;13.75;9.73;;;;;;;7.07;82.23;102867.84;5027622;28;20500;-69
2021/11/15 04:02:40;;;;;;;16.73;9.40;;;;;;;7.07;82.08;102869.63;5027955;28;20060;-69
2021/11/15 04:05:08;;;;;;;17.08;10.63;;;;;;;7.05;80.98;102869.72;5027725;28;20076;-70
2021/11/15 04:07:39;;;;;;;18.50;10.07;;;;;;;7.04;80.66;102868.00;5027676;28;20108;-66
2021/11/15 04:10:13;;;;;;;17.10;9.70;;;;;;;7.04;81.13;102867.13;5027462;28;20022;-67
2021/11/15 04:12:40;;;;;;;18.10;9.77;;;;;;;7.02;80.02;102863.72;5027500;28;20388;-68
2021/11/15 04:15:07;;;;;;;16.77;9.60;;;;;;;7.01;80.50;102862.84;5027389;28;20100;-66
2021/11/15 04:17:33;;;;;;;18.07;9.57;;;;;;;6.99;81.41;102870.03;5027660;28;20029;-66
2021/11/15 04:19:58;;;;;;;19.10;9.68;;;;;;;7.01;81.15;102875.25;5027541;28;20048;-67
2021/11/15 04:22:24;;;;;;;16.58;9.85;;;;;;;7.01;81.27;102867.28;5027475;28;20065;-68
2021/11/15 04:24:50;;;;;;;17.30;9.23;;;;;;;7.02;81.74;102869.03;5027724;28;20033;-66
2021/11/15 04:27:15;;;;;;;20.63;9.80;;;;;;;7.03;81.81;102873.38;5027124;28;20053;-66
2021/11/15 04:29:40;;;;;;;19.30;10.27;;;;;;;7.03;81.73;102866.28;5027524;28;20276;-68
2021/11/15 04:32:07;;;;;;;20.03;10.37;;;;;;;7.04;82.59;102864.47;5027496;28;20272;-68
2021/11/15 04:34:33;;;;;;;19.70;10.43;;;;;;;7.04;82.21;102867.13;5027513;28;20097;-67
2021/11/15 04:36:59;;;;;;;;;;;;;;;7.04;82.19;102872.44;5027767;28;20077;-67
2021/11/15 04:39:24;;;;;;;17.50;9.53;;;;;;;7.04;82.33;102865.34;5027282;28;20411;-68
2021/11/15 04:41:50;;;;;;;18.13;9.97;;;;;;;7.03;82.02;102866.28;5027033;28;20032;-66
2021/11/15 04:44:16;;;;;;;;;;;;;;;7.03;82.95;102858.34;5027689;28;20526;-65
2021/11/15 04:46:41;;;;;;;17.37;9.50;;;;;;;7.02;82.65;102866.38;5027356;28;19917;-68
2021/11/15 04:49:08;;;;;;;17.35;10.07;;;;;;;7.01;82.79;102862.84;5027247;28;20101;-67
2021/11/15 04:51:34;;;;;;;20.37;10.47;;;;;;;7.01;82.80;102864.66;5027171;28;20086;-67
2021/11/15 04:53:59;;;;;;;18.50;10.52;;;;;;;7.00;83.37;102866.44;5027081;28;20029;-65
2021/11/15 04:56:25;;;;;;;15.75;9.95;;;;;;;7.00;84.46;102871.75;5026667;28;20046;-65
2021/11/15 04:58:50;;;;;;;17.03;10.07;;;;;;;7.01;84.40;102870.78;5026955;28;20030;-67
2021/11/15 05:01:16;;;;;;;18.58;9.70;;;;;;;7.01;83.50;102875.25;5026728;28;20033;-67
2021/11/15 05:03:42;;;;;;;17.00;9.75;;;;;;;7.01;83.13;102873.44;5027111;28;20029;-68
2021/11/15 05:06:08;;;;;;;18.42;10.38;;;;;;;7.01;83.17;102878.75;5026916;28;20026;-67
2021/11/15 05:08:33;;;;;;;20.15;9.93;;;;;;;7.00;83.82;102877.06;5029906;28;20040;-66
2021/11/15 05:11:02;;;;;;;21.53;9.70;;;;;;;6.97;82.99;102867.47;5099158;28;20103;-67
2021/11/15 05:13:27;;;;;;;19.07;10.13;;;;;;;6.97;83.40;102872.75;5030144;28;20029;-68
2021/11/15 05:15:53;;;;;;;19.30;10.48;;;;;;;6.96;82.95;102871.03;5030096;28;20105;-66
2021/11/15 05:18:18;;;;;;;17.55;10.35;;;;;;;6.95;83.13;102871.97;5030043;28;20030;-68
2021/11/15 05:20:44;;;;;;;18.77;9.70;;;;;;;6.93;82.59;102865.91;5030287;28;20029;-67
2021/11/15 05:23:09;;;;;;;16.90;9.37;;;;;;;6.93;83.22;102868.56;5030209;28;20128;-67
2021/11/15 05:25:35;;;;;;;18.48;9.52;;;;;;;6.93;83.60;102859.72;5055093;23;20063;-64
2021/11/15 05:28:00;;;;;;;15.07;8.70;;;;;;;6.95;83.64;102866.66;5113593;28;20063;-65
2021/11/15 05:30:26;;;;;;;17.27;9.20;;;;;;;6.93;83.46;102876.50;5113388;28;20356;-68
2021/11/15 05:32:54;;;;;;;17.53;9.07;;;;;;;6.91;82.85;102870.41;5113558;28;20024;-67
2021/11/15 05:35:21;;;;;;;15.57;8.77;;;;;;;6.88;81.82;102872.34;5113601;28;20019;-66
2021/11/15 05:37:49;;;;;;;16.83;8.90;;;;;;;6.88;82.30;102882.97;5113588;28;20074;-66
2021/11/15 05:40:17;;;;;;;16.80;8.63;;;;;;;6.88;82.73;102878.53;5095591;28;20047;-67
2021/11/15 05:42:42;;;;;;;14.40;8.30;;;;;;;6.91;82.39;102883.66;5113439;28;20039;-67
2021/11/15 05:45:09;;;;;;;15.35;8.73;;;;;;;6.94;82.25;102883.50;5113069;28;20020;-66
2021/11/15 05:47:35;;;;;;;15.33;8.77;;;;;;;6.93;82.60;102886.25;5113602;28;20062;-67
2021/11/15 05:50:00;;;;;;;12.55;7.53;;;;;;;6.92;82.63;102890.69;5113375;28;20389;-68
2021/11/15 05:52:26;;;;;;;15.60;8.30;;;;;;;6.89;81.64;102882.03;5113489;28;20069;-67
2021/11/15 05:54:52;;;;;;;14.07;8.93;;;;;;;6.88;81.95;102883.84;5113145;28;20031;-66
2021/11/15 05:57:18;;;;;;;13.25;8.00;;;;;;;6.86;81.68;102877.75;5112953;28;20032;-68
2021/11/15 05:59:44;;;;;;;14.23;8.68;;;;;;;6.86;82.40;102880.38;5112877;28;20030;-63
2021/11/15 06:02:09;;;;;;;15.30;8.75;;;;;;;6.85;81.81;102880.47;5112978;28;20136;-67
2021/11/15 06:04:35;;;;;;;14.57;8.25;;;;;;;6.86;82.00;102885.69;5113451;28;20032;-67
2021/11/15 06:07:01;;;;;;;13.23;8.50;;;;;;;6.85;82.14;102889.28;5113112;28;20027;-67
2021/11/15 06:09:26;;;;;;;16.40;8.70;;;;;;;6.89;82.82;102889.97;5112965;28;20273;-66
2021/11/15 06:11:51;;;;;;;13.13;8.15;;;;;;;6.87;82.41;102897.13;5112901;28;20063;-67
2021/11/15 06:14:17;;;;;;;16.63;9.47;;;;;;;6.87;82.63;102883.88;5112561;28;20397;-67
2021/11/15 06:16:42;;;;;;;17.00;8.80;;;;;;;6.86;83.26;102892.81;5112828;28;20028;-67
2021/11/15 06:19:07;;;;;;;15.33;8.67;;;;;;;6.88;83.08;102897.09;5094222;28;20034;-67
2021/11/15 06:21:33;;;;;;;15.43;10.10;;;;;;;6.86;82.69;102898.94;5112730;28;20024;-63
2021/11/15 06:23:59;;;;;;;15.53;9.30;;;;;;;6.85;83.51;102897.22;5112476;28;20419;-68
2021/11/15 06:26:24;;;;;;;16.70;9.63;;;;;;;6.82;83.66;102900.03;5112133;28;20681;-69
2021/11/15 06:28:50;;;;;;;14.80;9.23;;;;;;;6.79;83.77;102892.25;5112445;28;20019;-65
2021/11/15 06:31:16;;;;;;;16.27;9.70;;;;;;;6.73;82.96;102895.19;5112166;28;20633;-61
2021/11/15 06:33:48;;;;;;;;;;;;;;;6.73;83.16;102896.03;5112733;28;20027;-67
2021/11/15 06:36:14;;;;;;;15.00;8.93;;;;;;;6.72;82.54;102902.25;5112299;28;19919;-61
2021/11/15 06:38:39;;;;;;;14.75;8.75;;;;;;;6.71;82.33;102899.69;5112254;28;20020;-65
2021/11/15 06:41:04;;;;;;;14.47;9.27;;;;;;;6.70;82.01;102895.31;5112172;28;20020;-66
2021/11/15 06:43:30;;;;;;;14.50;8.60;;;;;;;6.70;82.57;102890.91;5112131;28;20497;-62
2021/11/15 06:45:55;;;;;;;13.23;8.27;;;;;;;6.69;82.76;102899.78;5111919;28;20032;-60
2021/11/15 06:48:21;;;;;;;14.23;8.93;;;;;;;6.69;82.02;102888.34;5093645;28;20023;-63
2021/11/15 06:50:46;;;;;;;16.67;10.27;;;;;;;6.68;82.16;102890.09;5112148;28;20493;-64
2021/11/15 06:53:11;;;;;;;15.17;8.93;;;;;;;6.69;82.49;102893.63;5112227;28;20114;-66
2021/11/15 06:55:37;;;;;;;16.83;9.53;;;;;;;6.68;83.00;102890.09;5111704;28;20346;-64
2021/11/15 06:58:03;;;;;;;14.77;9.15;;;;;;;6.68;83.85;102895.41;5111897;28;20134;-60
2021/11/15 07:00:28;;;;;;;14.65;9.15;;;;;;;6.68;84.14;102892.75;5111522;28;20019;-61
2021/11/15 07:02:55;;;;;;;17.95;8.98;;;;;;;6.68;84.10;102895.41;5111677;28;20096;-61
2021/11/15 07:05:21;;;;;;;15.70;9.07;;;;;;;6.70;84.08;102906.81;5111517;28;20030;-61
2021/11/15 07:07:47;;;;;;;;;;;;;;;6.71;83.71;102907.66;5112057;28;20024;-62
2021/11/15 07:10:14;;;;;;;14.07;8.73;;;;;;;6.71;84.34;102910.28;5111764;28;19908;-61
2021/11/15 07:12:40;;;;;;;16.13;9.43;;;;;;;6.70;84.99;102919.16;5111723;28;20020;-61
2021/11/15 07:15:07;;;;;;;17.58;10.20;;;;;;;6.65;83.89;102922.06;5111568;28;20099;-61
2021/11/15 07:17:33;;;;;;;16.13;10.73;;;;;;;6.65;84.08;102927.38;5111083;28;20031;-61
2021/11/15 07:19:59;;;;;;;14.43;9.23;;;;;;;6.65;83.82;102922.91;5111618;28;20374;-60
2021/11/15 07:22:24;;;;;;;15.15;8.80;;;;;;;6.67;83.84;102930.78;5111412;28;20038;-61
2021/11/15 07:24:50;;;;;;;16.47;10.17;;;;;;;6.68;83.90;102926.34;5111264;28;21000;-60
2021/11/15 07:27:15;;;;;;;15.65;9.98;;;;;;;6.68;84.39;102932.50;5111338;28;20347;-60
2021/11/15 07:29:40;;;;;;;16.00;9.73;;;;;;;6.65;83.24;102928.22;5110889;28;20020;-60
2021/11/15 07:32:12;;;;;;;16.03;10.07;;;;;;;6.65;83.05;102930.00;5111048;28;20663;-62
2021/11/15 07:34:39;;;;;;;17.03;9.90;;;;;;;6.64;82.63;102929.16;5111160;28;20094;-65
2021/11/15 07:37:04;;;;;;;15.90;9.80;;;;;;;6.69;82.34;102930.72;5111296;28;20038;-61
2021/11/15 07:39:30;;;;;;;15.97;9.77;;;;;;;6.69;83.00;102934.22;5111199;28;20028;-60
2021/11/15 07:41:55;;;;;;;17.33;10.03;;;;;;;6.70;83.19;102932.41;5110928;28;20299;-62
2021/11/15 07:44:20;;;;;;;16.00;10.03;;;;;;;6.65;83.42;102925.56;5111013;28;20028;-61
2021/11/15 07:46:48;;;;;;;15.03;9.70;;;;;;;6.67;83.42;102922.81;5110802;28;20122;-62
2021/11/15 07:49:13;;;;;;;16.10;9.23;;;;;;;6.65;83.53;102928.22;5110823;28;20028;-64
2021/11/15 07:51:39;;;;;;;16.57;9.67;;;;;;;6.67;82.64;102930.78;5111307;28;20027;-63
2021/11/15 07:54:04;;;;;;;16.53;9.20;;;;;;;6.65;83.26;102930.84;5111119;28;20061;-65
2021/11/15 07:56:29;;;;;;;16.70;9.93;;;;;;;6.64;83.34;102923.00;5110711;28;20067;-61
2021/11/15 07:58:55;;;;;;;16.80;10.27;;;;;;;6.64;83.78;102926.53;5110780;28;20027;-62
2021/11/15 08:01:20;;;;;;;14.33;8.67;;;;;;;6.67;83.60;102921.97;5110684;28;20027;-60
2021/11/15 08:03:45;;;;;;;16.23;9.63;;;;;;;6.67;83.35;102921.97;5110636;28;20244;-64
2021/11/15 08:06:15;;;;;;;14.20;8.67;;;;;;;6.70;82.35;102927.13;5110885;28;20052;-62
2021/11/15 08:08:41;;;;;;;15.27;9.03;;;;;;;6.71;82.37;102920.91;5111068;28;20034;-62
2021/11/15 08:11:07;;;;;;;;;;;;;;;6.71;82.64;102921.78;5111134;28;20439;-61
2021/11/15 08:13:33;;;;;;;16.77;9.97;;;;;;;6.70;81.97;102924.47;5110781;28;19912;-63
2021/11/15 08:15:58;;;;;;;15.60;9.43;;;;;;;6.67;81.92;102916.69;5110836;28;20031;-63
2021/11/15 08:18:24;;;;;;;13.37;8.30;;;;;;;6.65;82.14;102928.22;5110651;28;20016;-61
2021/11/15 08:20:49;;;;;;;14.82;8.52;;;;;;;6.61;81.76;102925.81;5110801;28;20031;-63
2021/11/15 08:23:18;;;;;;;12.73;8.43;;;;;;;6.59;81.96;102923.22;5110707;28;20034;-67
2021/11/15 08:26:17;;;;;;;14.67;9.07;;;;;;;6.60;82.04;102916.13;5110550;28;20031;-65
2021/11/15 08:28:43;;;;;;;14.43;8.33;;;;;;;6.62;82.53;102922.22;5110736;28;20039;-64
2021/11/15 08:31:09;;;;;;;16.73;9.43;;;;;;;6.62;82.42;102923.06;5110578;28;20352;-62
2021/11/15 08:33:36;;;;;;;14.83;8.70;;;;;;;6.62;82.32;102917.78;5110586;28;20026;-71
2021/11/15 08:36:02;;;;;;;13.27;8.80;;;;;;;6.67;82.34;102921.97;5110607;28;20097;-62
2021/11/15 08:38:41;;;;;;;12.18;8.15;;;;;;;6.66;81.95;102918.50;5110542;28;20101;-61
2021/11/15 08:41:07;;;;;;;15.37;9.00;;;;;;;6.65;82.30;102917.63;5110536;28;20023;-61
2021/11/15 08:43:34;;;;;;;13.17;7.80;;;;;;;6.65;81.33;102916.75;5113695;28;20382;-61
2021/11/15 08:45:59;;;;;;;13.87;8.67;;;;;;;6.64;81.47;102915.03;5114203;28;20058;-63
2021/11/15 08:48:25;;;;;;;16.03;9.40;;;;;;;6.62;81.29;102906.31;5114281;28;20063;-62
2021/11/15 08:50:50;;;;;;;15.23;9.40;;;;;;;6.63;81.64;102908.91;5114389;28;20032;-64
2021/11/15 08:53:15;;;;;;;16.00;9.83;;;;;;;6.62;82.22;102908.97;5114508;28;20050;-64
2021/11/15 08:55:41;;;;;;;15.73;9.07;;;;;;;6.62;82.05;102908.97;5114225;28;20028;-61
2021/11/15 08:58:06;;;;;;;16.65;8.93;;;;;;;6.63;82.25;102913.31;5114213;28;20043;-62
2021/11/15 09:00:32;;;;;;;16.57;8.90;;;;;;;6.64;82.43;102915.91;5114141;28;20065;-63
2021/11/15 09:02:57;;;;;;;17.00;9.43;;;;;;;6.68;82.88;102915.75;5114132;28;20031;-65
2021/11/15 09:05:23;;;;;;;14.87;9.27;;;;;;;6.73;82.25;102911.09;5095564;28;20020;-61
2021/11/15 09:07:48;;;;;;;18.05;8.65;;;;;;;6.73;83.29;102916.41;5114249;28;20032;-61
2021/11/15 09:10:15;;;;;;;15.73;8.75;;;;;;;6.73;82.60;102911.94;5114195;28;20023;-65
2021/11/15 09:12:41;;;;;;;;;;;;;;;6.72;81.68;102910.22;5114450;28;20364;-66
2021/11/15 09:15:09;;;;;;;12.40;7.70;;;;;;;6.70;81.82;102912.09;5113913;28;20472;-61
2021/11/15 09:17:35;;;;;;;13.50;8.60;;;;;;;6.72;81.94;102910.22;5113834;28;20581;-62
2021/11/15 09:20:02;;;;;;;16.95;10.02;;;;;;;6.73;81.53;102916.41;5113598;28;20486;-66
2021/11/15 09:22:27;;;;;;;18.13;10.03;;;;;;;6.74;81.63;102910.16;5113732;28;20028;-64
2021/11/15 09:24:53;;;;;;;15.20;9.93;;;;;;;6.73;82.41;102905.78;5113501;28;20504;-62
2021/11/15 09:27:19;;;;;;;17.80;10.10;;;;;;;6.73;81.97;102905.78;5121596;22;20547;-63
2021/11/15 09:29:46;;;;;;;18.70;8.90;;;;;;;6.77;82.45;102900.25;5113529;28;20076;-61
2021/11/15 09:32:13;;;;;;;18.70;10.13;;;;;;;6.74;81.90;102904.88;5113588;28;20097;-67
2021/11/15 09:34:40;;;;;;;;;;;;;;;6.74;81.83;102908.38;5113884;28;20035;-63
2021/11/15 09:37:06;;;;;;;;;;;;;;;6.74;82.09;102903.06;5114188;28;19912;-64
2021/11/15 09:39:31;;;;;;;15.00;8.87;;;;;;;6.79;82.03;102903.69;5113524;28;19912;-62
2021/11/15 09:41:59;;;;;;;18.03;9.33;;;;;;;6.77;81.87;102902.06;5113408;28;20031;-61
2021/11/15 09:44:25;;;;;;;14.90;8.57;;;;;;;6.78;81.77;102899.31;5113341;28;20269;-60
2021/11/15 09:46:50;;;;;;;17.53;9.03;;;;;;;6.84;81.45;102902.59;5113258;28;20100;-62
2021/11/15 09:49:15;;;;;;;16.73;10.30;;;;;;;6.83;81.73;102896.47;5113271;28;20024;-61
2021/11/15 09:51:44;;;;;;;18.33;9.77;;;;;;;6.85;81.96;102893.72;5113302;28;20067;-64
2021/11/15 09:54:10;;;;;;;18.17;10.10;;;;;;;6.85;81.38;102891.06;5112972;28;20077;-61
2021/11/15 09:56:37;;;;;;;15.43;9.70;;;;;;;6.80;81.22;102886.00;5113329;28;20528;-60
2021/11/15 09:59:05;;;;;;;18.77;9.90;;;;;;;6.80;80.89;102891.28;5113171;28;20489;-61
2021/11/15 10:01:31;;;;;;;21.37;11.13;;;;;;;6.77;81.21;102902.06;5094689;28;20027;-61
2021/11/15 10:03:56;;;;;;;19.15;11.35;;;;;;;6.81;81.34;102898.31;5113097;28;20050;-61
2021/11/15 10:06:21;;;;;;;19.33;10.60;;;;;;;6.81;81.20;102895.66;5112765;28;20446;-60
2021/11/15 10:08:50;;;;;;;20.67;11.03;;;;;;;6.77;80.74;102899.41;5112972;28;20074;-64
2021/11/15 10:11:17;;;;;;;19.00;11.37;;;;;;;6.79;80.76;102909.00;5112689;28;20687;-62
2021/11/15 10:13:43;;;;;;;19.40;10.60;;;;;;;6.82;81.33;102906.19;5112907;28;20046;-60
2021/11/15 10:16:11;;;;;;;15.60;9.48;;;;;;;6.77;81.81;102899.41;5094297;28;20036;-62
2021/11/15 10:19:07;;;;;;;18.03;10.50;;;;;;;6.80;81.42;102899.25;5113017;28;20024;-64
2021/11/15 10:21:37;;;;;;;18.97;11.27;;;;;;;6.82;81.62;102900.88;5112440;28;20027;-60
2021/11/15 10:24:11;;;;;;;17.90;10.57;;;;;;;6.80;81.88;102897.47;5112580;28;20133;-60
2021/11/15 10:26:46;;;;;;;18.33;10.50;;;;;;;6.82;82.21;102894.72;5112419;28;20067;-64
2021/11/15 10:29:21;;;;;;;20.97;10.40;;;;;;;6.78;81.62;102885.22;5112839;28;20028;-61
2021/11/15 10:31:53;;;;;;;19.97;10.10;;;;;;;6.80;81.50;102888.63;5112623;28;20027;-60
2021/11/15 10:34:26;;;;;;;20.27;11.07;;;;;;;6.81;81.73;102887.72;5112459;28;20027;-63
2021/11/15 10:36:55;;;;;;;18.63;10.80;;;;;;;6.82;81.92;102890.28;5112161;28;20107;-63
2021/11/15 10:39:25;;;;;;;17.33;9.67;;;;;;;6.88;81.71;102898.88;5112249;28;20378;-60
2021/11/15 10:41:55;;;;;;;17.47;10.57;;;;;;;6.88;81.85;102888.25;5093876;28;20499;-61
2021/11/15 10:44:20;;;;;;;18.27;10.00;;;;;;;6.88;81.21;102888.25;5112241;28;20024;-61
2021/11/15 10:46:50;;;;;;;17.27;10.80;;;;;;;6.84;81.44;102889.34;5112196;28;20131;-60
2021/11/15 10:49:18;;;;;;;18.63;10.07;;;;;;;6.84;81.58;102889.34;5112243;28;20106;-60
2021/11/15 10:51:48;;;;;;;21.80;11.27;;;;;;;6.85;81.37;102888.44;5111904;28;20027;-60
2021/11/15 10:54:43;;;;;;;18.27;10.60;;;;;;;6.84;81.32;102892.00;5112320;28;20034;-60
2021/11/15 10:57:38;;;;;;;17.43;10.90;;;;;;;6.80;81.55;102878.03;5111911;28;20062;-62
2021/11/15 11:00:06;;;;;;;19.73;10.80;;;;;;;6.79;81.54;102879.84;5111961;28;20077;-63
2021/11/15 11:02:37;;;;;;;17.37;10.43;;;;;;;6.80;82.12;102878.03;5111997;28;20031;-62
2021/11/15 11:05:10;;;;;;;16.67;9.77;;;;;;;6.81;81.99;102872.66;5111138;28;20413;-61
2021/11/15 11:07:37;;;;;;;18.43;10.47;;;;;;;6.82;81.85;102876.19;5111644;28;20069;-61
2021/11/15 11:10:07;;;;;;;16.70;10.30;;;;;;;6.83;82.27;102869.97;5111885;28;20016;-61
2021/11/15 11:12:40;;;;;;;17.07;10.30;;;;;;;6.85;82.29;102869.88;5111740;28;20024;-60
2021/11/15 11:15:37;;;;;;;15.50;9.60;;;;;;;6.81;81.81;102867.34;5111612;28;20379;-61
2021/11/15 11:19:13;;;;;;;15.57;9.10;;;;;;;6.75;81.64;102867.69;5111759;28;20030;-65
2021/11/15 11:21:43;;;;;;;17.25;10.00;;;;;;;6.71;82.43;102862.59;5108215;28;20073;-66
2021/11/15 11:26:46;;;;;;;18.53;9.63;;;;;;;6.70;81.68;102861.75;5111529;28;20051;-66